Green Bay, WI (54304)

10:12 AM CDT on March 30, 2017 (GMT -0500)
Southern Ashwaubenon | | Change Station

Elev 643 ft 44.48 °N, 88.09 °W | Updated 36 seconds ago

Light Snow
Light Snow Mist
33.5 °F
Feels Like 34 °F
N
3.0
Wind Variable Wind from South

Today
High -- | Low -- °F
--% Chance of Precip.
Yesterday
High -- | Low -- °F
Precip. -- in
Pressure 30.00 in
Visibility 2.5 miles
Clouds Overcast 500 ft
Windchill 34 °F
Dew Point 33 °F
Humidity 98%
Rainfall 0.11 in
Snow Depth Not available.
6:36 AM 7:17 PM
Waxing Crescent, 9% visible
METAR KGRB 301453Z 05014KT 2 1/2SM -SN BR OVC005 01/01 A2998 RMK AO2 SLP159 P0002 60005 T00110011 58016
Pressure 30.00 in
Visibility 2.5 miles
Clouds Overcast 500 ft
Windchill 34 °F
Dew Point 33 °F
Humidity 98%
Rainfall 0.11 in
Snow Depth Not available.
6:36 AM 7:17 PM
Waxing Crescent, 9% visible
METAR KGRB 301453Z 05014KT 2 1/2SM -SN BR OVC005 01/01 A2998 RMK AO2 SLP159 P0002 60005 T00110011 58016

Get Severe Weather Alerts

Thanks for signing up!

Be on the lookout for a verification email in your inbox.

You'll start receiving the daily forecast at 8 AM.

×

10-Day Weather Forecast

Almanac

Astronomy

Mar. 30, 2017 Rise Set
Actual Time
Civil Twilight
Nautical Twilight
Astronomical Twilight
Moon
Length of Visible Light
Length of Day
Tomorrow will be .
, % of the Moon is Illuminated

Today's Extremes

State Highs State Lows

Community

WunderPhotos

Upload Photos

1,962,540 photos uploaded!

WunderBlog® & News

Nearby

Air Quality

  Air Quality AQ Index Pollutant
Not available.

Snow Depth

Station Depth Elevation

Earthquake Activity

City Distance Mag. Time & Date
Minimum magnitude displayed is 2.5.

Earthquake Activity

City Distance Mag. Time & Date
Minimum magnitude displayed is 2.5.

Coastal Water Temperatures

Place Temperature

Stations

Nearby Weather Stations

Station Location Temp. Windchill Dew Point Humidity Wind Precip. Elev Updated Type
                   

Watches & Warnings

There are currently no watches in effect.